Time;durP1;ratioP1;P1;durP2;ratioP2;P2;SDS_P1;SDS_P2;PMS_P1;PMS_P2;Temp;Humidity;BMP_temperature;BMP_pressure;BME280_temperature;BME280_humidity;BME280_pressure;Samples;Min_cycle;Max_cycle;Signal;HPM_P1;HPM_P2
2022/09/06 00:01:55;;;;;;;10.90;5.75;;;;;;;7.33;100.00;100412.22;1739609;82;20176;-69
2022/09/06 00:04:21;;;;;;;10.32;6.05;;;;;;;7.27;100.00;100407.19;1723258;82;21117;-68
2022/09/06 00:06:48;;;;;;;11.53;5.60;;;;;;;7.30;100.00;100409.95;1740241;82;21075;-68
2022/09/06 00:09:15;;;;;;;13.08;5.83;;;;;;;7.26;100.00;100408.24;1750592;82;21003;-69
2022/09/06 00:11:42;;;;;;;11.90;5.95;;;;;;;7.20;100.00;100399.70;1731946;82;21010;-68
2022/09/06 00:14:08;;;;;;;;;;;;;;;7.20;100.00;100404.30;1740135;82;21046;-69
2022/09/06 00:16:35;;;;;;;13.75;5.42;;;;;;;7.20;100.00;100398.35;1724262;82;20173;-68
2022/09/06 00:19:02;;;;;;;11.43;5.80;;;;;;;7.16;100.00;100406.64;1721829;82;21130;-68
2022/09/06 00:21:29;;;;;;;9.65;5.42;;;;;;;7.11;100.00;100398.94;1728223;82;21050;-69
2022/09/06 00:23:56;;;;;;;12.90;6.47;;;;;;;7.00;100.00;100407.33;1749497;82;21066;-69
2022/09/06 00:26:22;;;;;;;;;;;;;;;6.86;100.00;100404.01;1729135;82;21063;-69
2022/09/06 00:28:49;;;;;;;12.37;6.37;;;;;;;6.78;100.00;100400.80;1727147;82;20499;-68
2022/09/06 00:31:21;;;;;;;13.72;6.25;;;;;;;6.66;100.00;100402.10;1746516;82;21601;-68
2022/09/06 00:33:47;;;;;;;13.80;6.65;;;;;;;6.64;100.00;100400.69;1733950;82;21031;-69
2022/09/06 00:36:14;;;;;;;12.50;5.87;;;;;;;6.66;100.00;100403.45;1731710;82;21055;-68
2022/09/06 00:38:41;;;;;;;10.90;5.97;;;;;;;6.68;100.00;100393.77;1735437;82;21097;-69
2022/09/06 00:41:09;;;;;;;;;;;;;;;6.65;100.00;100391.53;1744913;82;21107;-68
2022/09/06 00:43:35;;;;;;;;;;;;;;;6.59;100.00;100399.22;1746401;82;20119;-69
2022/09/06 00:46:02;;;;;;;13.98;7.05;;;;;;;6.46;100.00;100402.91;1743674;82;20152;-69
2022/09/06 00:48:29;;;;;;;16.05;8.28;;;;;;;6.34;100.00;100407.46;1717781;82;21058;-69
2022/09/06 00:50:59;;;;;;;14.93;7.62;;;;;;;6.33;100.00;100406.63;1735153;81;21634;-69
2022/09/06 00:53:25;;;;;;;16.25;8.20;;;;;;;6.32;100.00;100407.67;1736116;82;21429;-69
2022/09/06 00:55:53;;;;;;;17.37;8.03;;;;;;;6.32;100.00;100405.49;1737125;81;21157;-69
2022/09/06 00:58:19;;;;;;;14.50;8.15;;;;;;;6.31;100.00;100407.89;1729299;82;20999;-69
2022/09/06 01:00:46;;;;;;;16.65;7.78;;;;;;;6.25;100.00;100406.94;1701057;82;21118;-68
2022/09/06 01:03:12;;;;;;;15.63;8.58;;;;;;;6.20;100.00;100410.83;1727446;82;21035;-68
2022/09/06 01:06:05;;;;;;;16.30;8.58;;;;;;;6.18;100.00;100408.06;1732694;82;21035;-68
2022/09/06 01:09:09;;;;;;;16.37;8.88;;;;;;;6.19;100.00;100402.45;1731378;82;21042;-67
2022/09/06 01:12:14;;;;;;;18.20;9.13;;;;;;;6.17;100.00;100409.94;1733775;82;21121;-68
2022/09/06 01:14:59;;;;;;;18.40;8.90;;;;;;;6.10;100.00;100411.89;1737185;82;22216;-68
2022/09/06 01:17:58;;;;;;;17.37;9.45;;;;;;;5.98;100.00;100411.84;1729023;82;21042;-69
2022/09/06 01:20:45;;;;;;;19.85;9.20;;;;;;;5.91;100.00;100417.02;1734575;82;21441;-69
2022/09/06 01:23:52;;;;;;;21.73;10.30;;;;;;;5.89;100.00;100415.88;1745191;82;21075;-69
2022/09/06 01:26:30;;;;;;;17.10;10.08;;;;;;;5.91;100.00;100423.78;1729972;82;21554;-69
2022/09/06 01:28:57;;;;;;;19.20;10.88;;;;;;;5.88;100.00;100421.53;1738762;82;21051;-68
2022/09/06 01:31:39;;;;;;;22.48;11.15;;;;;;;5.84;100.00;100420.29;1728834;82;21077;-68
2022/09/06 01:34:20;;;;;;;26.05;12.00;;;;;;;5.77;100.00;100422.23;1736613;82;21089;-69
2022/09/06 01:37:01;;;;;;;23.57;11.85;;;;;;;5.71;100.00;100428.51;1736888;82;21134;-68
2022/09/06 01:39:33;;;;;;;20.30;11.55;;;;;;;5.70;100.00;100420.13;1681251;85;21085;-68
2022/09/06 01:42:13;;;;;;;23.42;11.93;;;;;;;5.74;100.00;100431.59;1725169;81;21105;-68
2022/09/06 01:44:47;;;;;;;23.90;11.60;;;;;;;5.76;100.00;100425.98;1727672;82;21046;-68
2022/09/06 01:47:41;;;;;;;20.55;12.18;;;;;;;5.74;100.00;100424.84;1731699;82;21038;-68
2022/09/06 01:50:21;;;;;;;22.95;12.23;;;;;;;5.71;100.00;100431.21;1727761;82;21086;-68
2022/09/06 01:53:19;;;;;;;27.52;13.38;;;;;;;5.70;100.00;100429.58;1739491;82;21083;-68
2022/09/06 01:56:09;;;;;;;23.60;12.40;;;;;;;5.74;100.00;100430.79;1745116;81;21058;-68
2022/09/06 01:58:53;;;;;;;22.95;12.45;;;;;;;5.76;100.00;100430.86;1734313;82;21079;-69
2022/09/06 02:02:00;;;;;;;27.73;13.08;;;;;;;5.75;100.00;100432.42;1730914;82;21376;-68
2022/09/06 02:04:44;;;;;;;22.50;12.60;;;;;;;5.71;100.00;100430.69;1740139;82;21503;-69
2022/09/06 02:07:22;;;;;;;22.65;12.20;;;;;;;5.71;100.00;100437.45;1723185;82;21514;-69
2022/09/06 02:09:57;;;;;;;23.70;12.15;;;;;;;5.74;100.00;100439.70;1721090;82;21114;-69
2022/09/06 02:12:24;;;;;;;25.72;13.00;;;;;;;5.76;100.00;100443.54;1724486;82;21094;-69
2022/09/06 02:15:05;;;;;;;24.05;12.98;;;;;;;5.73;100.00;100443.47;1720080;82;21098;-69
2022/09/06 02:17:38;;;;;;;28.35;13.35;;;;;;;5.68;100.00;100439.77;1696186;82;20952;-69
2022/09/06 02:20:24;;;;;;;24.30;12.43;;;;;;;5.63;100.00;100446.38;1740965;82;21137;-68
2022/09/06 02:22:50;;;;;;;24.37;12.60;;;;;;;5.60;100.00;100438.17;1743370;82;21340;-68
2022/09/06 02:25:25;;;;;;;21.85;12.20;;;;;;;5.61;100.00;100445.23;1742723;82;21039;-68
2022/09/06 02:27:51;;;;;;;20.92;11.50;;;;;;;5.61;100.00;100440.35;1702519;82;21039;-68
2022/09/06 02:30:18;;;;;;;27.85;12.40;;;;;;;5.60;100.00;100444.92;1703080;82;21051;-69
2022/09/06 02:32:55;;;;;;;24.43;11.95;;;;;;;5.58;100.00;100445.69;1710983;82;21015;-69
2022/09/06 02:35:21;;;;;;;21.00;12.43;;;;;;;5.53;100.00;100450.11;1721888;82;21677;-68
2022/09/06 02:37:48;;;;;;;23.35;12.60;;;;;;;5.46;100.00;100459.59;1719849;82;21031;-68
2022/09/06 02:40:15;;;;;;;21.65;12.03;;;;;;;5.42;100.00;100455.16;1722602;82;22252;-68
2022/09/06 02:42:41;;;;;;;23.25;12.18;;;;;;;5.46;100.00;100455.55;1743245;82;21062;-68
2022/09/06 02:45:08;;;;;;;22.42;12.03;;;;;;;5.47;100.00;100452.64;1728583;82;21078;-68
2022/09/06 02:47:36;;;;;;;22.05;11.68;;;;;;;5.43;100.00;100459.52;1725689;82;21035;-68
2022/09/06 02:50:03;;;;;;;20.70;11.60;;;;;;;5.35;100.00;100453.04;1727190;82;21169;-68
2022/09/06 02:52:29;;;;;;;19.85;11.60;;;;;;;5.31;100.00;100454.55;1698540;82;21503;-67
2022/09/06 02:54:56;;;;;;;23.12;12.18;;;;;;;5.31;100.00;100453.20;1737603;82;21074;-68
2022/09/06 02:57:22;;;;;;;22.30;10.68;;;;;;;5.31;100.00;100448.33;1724074;82;21540;-67
2022/09/06 02:59:49;;;;;;;19.17;11.05;;;;;;;5.27;100.00;100443.05;1727958;82;21557;-68
2022/09/06 03:02:15;;;;;;;19.55;10.53;;;;;;;5.19;100.00;100459.00;1733007;82;21482;-68
2022/09/06 03:04:41;;;;;;;18.75;11.50;;;;;;;5.11;100.00;100458.42;1723898;82;21656;-67
2022/09/06 03:07:08;;;;;;;23.45;11.80;;;;;;;5.01;100.00;100457.56;1723647;82;21490;-68
2022/09/06 03:09:35;;;;;;;21.42;11.93;;;;;;;4.96;100.00;100465.47;1741768;82;21434;-69
2022/09/06 03:14:02;;;;;;;24.63;11.88;;;;;;;4.96;100.00;100458.73;1807812;78;22718;-70
2022/09/06 03:16:29;;;;;;;;;;;;;;;4.88;100.00;100460.36;1743252;81;21106;-70
2022/09/06 03:18:56;;;;;;;21.62;11.70;;;;;;;4.90;100.00;100459.61;1740693;82;20102;-69
2022/09/06 03:21:22;;;;;;;23.57;12.15;;;;;;;4.88;100.00;100454.45;1729019;82;21874;-70
2022/09/06 03:23:49;;;;;;;26.70;12.82;;;;;;;4.88;100.00;100457.66;1721082;83;21865;-69
2022/09/06 03:26:16;;;;;;;32.28;16.00;;;;;;;4.87;100.00;100457.34;1746274;82;21404;-69
2022/09/06 03:28:42;;;;;;;;;;;;;;;4.85;100.00;100462.15;1736711;82;21082;-69
2022/09/06 03:31:09;;;;;;;32.85;15.45;;;;;;;4.86;100.00;100465.95;1721312;82;20432;-69
2022/09/06 03:33:36;;;;;;;30.75;14.63;;;;;;;4.87;100.00;100468.14;1709139;82;21034;-69
2022/09/06 03:36:03;;;;;;;28.45;15.85;;;;;;;4.90;100.00;100465.83;1732827;82;21662;-70
2022/09/06 03:38:30;;;;;;;32.00;15.53;;;;;;;4.93;100.00;100467.26;1748855;82;21042;-70
2022/09/06 03:40:56;;;;;;;;;;;;;;;4.93;100.00;100478.89;1751271;81;21110;-69
2022/09/06 03:43:23;;;;;;;29.40;15.83;;;;;;;4.91;100.00;100481.50;1740609;82;20134;-70
2022/09/06 03:45:53;;;;;;;31.50;15.68;;;;;;;4.83;100.00;100478.53;1731155;82;21126;-71
2022/09/06 03:48:21;;;;;;;31.35;15.95;;;;;;;4.87;100.00;100478.93;1727760;82;21694;-69
2022/09/06 03:50:50;;;;;;;30.12;15.85;;;;;;;4.94;100.00;100476.50;1744870;82;21628;-68
2022/09/06 03:53:17;;;;;;;31.30;15.80;;;;;;;5.00;100.00;100483.72;1735000;82;21085;-68
2022/09/06 03:55:49;;;;;;;35.65;17.25;;;;;;;5.07;100.00;100486.89;1737948;82;21058;-67
2022/09/06 03:58:18;;;;;;;28.47;16.32;;;;;;;5.08;100.00;100487.20;1750119;82;21671;-67
2022/09/06 04:00:44;;;;;;;31.77;16.85;;;;;;;5.06;100.00;100487.95;1726867;82;21503;-67
2022/09/06 04:03:11;;;;;;;26.95;15.48;;;;;;;5.07;100.00;100496.33;1744531;82;21022;-67
2022/09/06 04:05:39;;;;;;;27.75;15.88;;;;;;;5.11;100.00;100498.39;1726727;82;21095;-67
2022/09/06 04:08:06;;;;;;;30.10;14.83;;;;;;;5.16;100.00;100497.23;1740544;81;21032;-67
2022/09/06 04:10:32;;;;;;;28.32;14.93;;;;;;;5.23;100.00;100498.00;1730595;82;21530;-67
2022/09/06 04:12:59;;;;;;;29.63;15.03;;;;;;;5.29;100.00;100505.22;1687345;84;21850;-67
2022/09/06 04:15:25;;;;;;;32.83;14.23;;;;;;;5.34;100.00;100496.48;1748520;82;21646;-68
2022/09/06 04:17:51;;;;;;;26.12;13.62;;;;;;;5.36;100.00;100511.92;1751126;82;21374;-68
2022/09/06 04:20:18;;;;;;;29.95;14.45;;;;;;;5.41;100.00;100499.43;1726717;82;21062;-67
2022/09/06 04:22:44;;;;;;;24.10;12.70;;;;;;;5.49;100.00;100511.29;1742998;82;21054;-68
2022/09/06 04:25:12;;;;;;;;;;;;;;;5.64;100.00;100512.84;1714787;84;21109;-68
2022/09/06 04:27:38;;;;;;;25.43;13.18;;;;;;;5.77;100.00;100508.17;1684699;85;20434;-67
2022/09/06 04:30:07;;;;;;;27.48;13.95;;;;;;;5.82;100.00;100508.31;1732281;82;21102;-67
2022/09/06 04:32:33;;;;;;;22.85;12.85;;;;;;;5.95;100.00;100503.36;1726327;82;21039;-67
2022/09/06 04:35:02;;;;;;;24.32;12.00;;;;;;;6.13;100.00;100503.91;1723235;82;21038;-66
2022/09/06 04:37:29;;;;;;;20.97;11.00;;;;;;;6.32;100.00;100498.27;1716292;82;21602;-68
2022/09/06 04:39:55;;;;;;;21.30;11.95;;;;;;;6.47;100.00;100495.19;1736761;82;21003;-67
2022/09/06 04:42:21;;;;;;;21.65;10.93;;;;;;;6.56;100.00;100497.03;1735890;82;21089;-67
2022/09/06 04:44:49;;;;;;;18.73;9.93;;;;;;;6.65;100.00;100497.87;1737501;82;20975;-71
2022/09/06 04:47:18;;;;;;;23.85;11.12;;;;;;;6.80;100.00;100494.22;1725235;82;21510;-67
2022/09/06 04:49:44;;;;;;;17.12;10.58;;;;;;;6.95;100.00;100491.10;1724159;82;20991;-70
2022/09/06 04:52:11;;;;;;;20.12;11.10;;;;;;;6.99;100.00;100495.84;1731409;82;21030;-69
2022/09/06 04:54:37;;;;;;;;;;;;;;;7.08;100.00;100489.58;1730503;82;21026;-68
2022/09/06 04:57:04;;;;;;;19.50;10.28;;;;;;;7.20;100.00;100485.01;1721126;83;20470;-67
2022/09/06 04:59:32;;;;;;;25.52;13.85;;;;;;;7.24;100.00;100493.49;1728158;82;21568;-70
2022/09/06 05:01:58;;;;;;;23.00;11.43;;;;;;;7.30;100.00;100496.09;1733055;82;22132;-67
2022/09/06 05:04:25;;;;;;;18.35;9.43;;;;;;;7.40;100.00;100489.58;1729538;82;22032;-65
2022/09/06 05:07:06;;;;;;;14.33;7.90;;;;;;;7.58;100.00;100485.16;1737829;82;21574;-65
2022/09/06 05:09:33;;;;;;;17.35;8.88;;;;;;;7.76;100.00;100492.62;1748738;82;21050;-61
2022/09/06 05:12:01;;;;;;;13.05;7.55;;;;;;;7.93;100.00;100486.82;1736206;82;21090;-61
2022/09/06 05:14:28;;;;;;;10.08;5.97;;;;;;;8.11;100.00;100487.22;1705908;82;21618;-61
2022/09/06 05:16:54;;;;;;;;;;;;;;;8.36;100.00;100493.20;1704487;83;21540;-61
2022/09/06 05:19:20;;;;;;;12.35;6.65;;;;;;;8.69;100.00;100488.99;1701561;84;20128;-62
2022/09/06 05:21:47;;;;;;;;;;;;;;;8.92;100.00;100491.64;1714182;82;21019;-61
2022/09/06 05:24:13;;;;;;;11.08;6.85;;;;;;;9.16;100.00;100484.20;1705686;82;20160;-62
2022/09/06 05:26:41;;;;;;;9.65;5.60;;;;;;;9.31;100.00;100488.55;1700410;83;21623;-62
2022/09/06 05:29:08;;;;;;;10.35;5.90;;;;;;;9.61;100.00;100486.33;1700528;84;21096;-61
2022/09/06 05:31:35;;;;;;;9.30;5.60;;;;;;;9.87;100.00;100480.23;1715424;82;21126;-61
2022/09/06 05:34:01;;;;;;;;;;;;;;;10.02;100.00;100473.37;1717995;83;21090;-61
2022/09/06 05:36:29;;;;;;;8.25;5.08;;;;;;;10.21;100.00;100467.94;1715487;83;20145;-61
2022/09/06 05:38:56;;;;;;;11.03;4.97;;;;;;;10.40;100.00;100467.94;1715456;83;21070;-62
2022/09/06 05:41:23;;;;;;;9.78;4.85;;;;;;;10.71;100.00;100461.78;1717333;82;21106;-62
2022/09/06 05:43:49;;;;;;;8.18;4.33;;;;;;;10.98;100.00;100452.28;1702900;82;21084;-61
2022/09/06 05:46:16;;;;;;;7.40;4.17;;;;;;;11.31;100.00;100452.57;1715384;82;21597;-61
2022/09/06 05:48:43;;;;;;;7.37;4.22;;;;;;;11.66;100.00;100452.03;1715567;83;21098;-61
2022/09/06 05:51:13;;;;;;;;;;;;;;;11.95;100.00;100453.37;1718684;82;21098;-60
2022/09/06 05:53:43;;;;;;;6.58;3.60;;;;;;;12.20;100.00;100456.25;1715412;83;20132;-60
2022/09/06 05:56:11;;;;;;;8.10;3.65;;;;;;;12.29;100.00;100454.64;1717099;82;21127;-60
2022/09/06 05:58:38;;;;;;;7.45;3.87;;;;;;;12.31;100.00;100455.22;1730606;82;21038;-60
2022/09/06 06:01:09;;;;;;;;;;;;;;;12.32;100.00;100459.59;1718243;83;21063;-62
2022/09/06 06:03:35;;;;;;;5.65;3.17;;;;;;;12.36;100.00;100464.78;1722499;82;20442;-61
2022/09/06 06:06:02;;;;;;;7.37;3.77;;;;;;;12.24;100.00;100459.27;1736022;82;21293;-61
2022/09/06 06:08:29;;;;;;;8.30;3.72;;;;;;;12.26;100.00;100461.17;1705960;82;21055;-61
2022/09/06 06:11:00;;;;;;;;;;;;;;;12.36;100.00;100464.78;1744592;81;21129;-61
2022/09/06 06:13:28;;;;;;;5.42;3.00;;;;;;;12.46;100.00;100462.12;1720832;82;20934;-61
2022/09/06 06:15:55;;;;;;;5.87;2.77;;;;;;;12.46;100.00;100466.22;1710476;82;21751;-61
2022/09/06 06:18:23;;;;;;;7.28;3.50;;;;;;;12.56;100.00;100464.60;1735583;82;21047;-61
2022/09/06 06:20:50;;;;;;;7.75;3.33;;;;;;;12.61;100.00;100463.27;1722346;82;21098;-60
2022/09/06 06:23:17;;;;;;;5.40;3.30;;;;;;;12.71;100.00;100462.77;1731142;82;21063;-60
2022/09/06 06:25:43;;;;;;;6.65;3.60;;;;;;;12.94;100.00;100462.27;1736171;82;21146;-61
2022/09/06 06:28:13;;;;;;;7.30;3.22;;;;;;;13.04;100.00;100466.93;1728010;82;21090;-62
2022/09/06 06:30:39;;;;;;;4.80;2.95;;;;;;;13.03;100.00;100469.41;1715144;82;21641;-64
2022/09/06 06:33:05;;;;;;;;;;;;;;;13.11;100.00;100470.25;1723003;82;21629;-62
2022/09/06 06:35:32;;;;;;;7.00;3.42;;;;;;;13.17;100.00;100477.39;1712199;82;20133;-61
2022/09/06 06:37:58;;;;;;;;;;;;;;;13.18;100.00;100475.48;1739862;82;21071;-63
2022/09/06 06:40:26;;;;;;;5.17;2.45;;;;;;;13.26;100.00;100476.30;1737529;82;20190;-63
2022/09/06 06:42:53;;;;;;;5.72;2.30;;;;;;;13.22;100.00;100477.92;1736926;82;21546;-62
2022/09/06 06:45:20;;;;;;;4.60;2.70;;;;;;;13.24;100.00;100477.95;1692119;82;21087;-63
2022/09/06 06:47:50;;;;;;;6.33;3.25;;;;;;;13.31;100.00;100481.78;1713940;82;21432;-62
2022/09/06 06:50:16;;;;;;;5.53;3.00;;;;;;;13.43;100.00;100470.84;1699220;82;21162;-62
2022/09/06 06:52:43;;;;;;;7.10;3.47;;;;;;;13.48;100.00;100473.31;1692751;84;21084;-62
2022/09/06 06:55:09;;;;;;;7.20;3.40;;;;;;;13.51;100.00;100472.22;1703010;82;21673;-64
2022/09/06 06:57:36;;;;;;;6.83;3.75;;;;;;;13.56;100.00;100475.52;1718452;82;21106;-62
2022/09/06 07:00:05;;;;;;;8.55;4.75;;;;;;;13.63;99.69;100481.53;1720504;82;21648;-63
2022/09/06 07:02:32;;;;;;;8.15;4.53;;;;;;;13.73;100.00;100484.27;1720118;82;20992;-63
2022/09/06 07:04:59;;;;;;;8.75;4.67;;;;;;;13.87;98.93;100477.13;1724072;82;21016;-63
2022/09/06 07:07:26;;;;;;;7.83;4.50;;;;;;;14.07;100.00;100483.11;1716213;82;21445;-62
2022/09/06 07:09:54;;;;;;;8.33;5.17;;;;;;;14.21;100.00;100478.16;1712315;82;21040;-62
2022/09/06 07:12:21;;;;;;;5.80;3.30;;;;;;;14.42;99.02;100472.09;1737067;82;21078;-62
2022/09/06 07:14:47;;;;;;;5.33;2.70;;;;;;;14.45;93.12;100476.47;1748049;81;21050;-62
2022/09/06 07:17:15;;;;;;;4.28;2.12;;;;;;;14.47;88.56;100475.38;1749888;82;21035;-61
2022/09/06 07:19:41;;;;;;;4.47;2.10;;;;;;;14.41;81.39;100471.84;1736573;82;21168;-61
2022/09/06 07:22:10;;;;;;;3.08;2.12;;;;;;;14.13;81.34;100484.77;1725865;82;21007;-62
2022/09/06 07:24:37;;;;;;;5.20;2.50;;;;;;;13.92;80.87;100486.72;1721309;82;21435;-61
2022/09/06 07:27:03;;;;;;;3.52;1.90;;;;;;;13.81;82.66;100489.19;1735198;82;21165;-61
2022/09/06 07:29:30;;;;;;;4.58;1.98;;;;;;;13.77;81.58;100480.70;1731978;82;21089;-65
2022/09/06 07:31:56;;;;;;;;;;;;;;;13.75;80.56;100484.80;1753745;82;21145;-61
2022/09/06 07:34:24;;;;;;;5.33;2.30;;;;;;;13.68;80.03;100473.30;1738169;82;20168;-61
2022/09/06 07:36:52;;;;;;;4.40;1.35;;;;;;;13.54;80.52;100480.42;1744435;80;21232;-61
2022/09/06 07:39:19;;;;;;;3.95;2.10;;;;;;;13.46;78.18;100479.87;1739560;82;21609;-62
2022/09/06 07:41:45;;;;;;;;;;;;;;;13.40;79.78;100476.86;1734975;82;21094;-61
2022/09/06 07:44:12;;;;;;;3.83;1.42;;;;;;;13.38;80.86;100487.27;1750884;82;20134;-61
2022/09/06 07:46:38;;;;;;;5.55;1.25;;;;;;;13.36;81.46;100488.06;1750334;82;21066;-62
2022/09/06 07:49:04;;;;;;;;;;;;;;;13.42;84.39;100482.08;1741428;82;21070;-62
2022/09/06 07:51:31;;;;;;;2.70;1.50;;;;;;;13.50;84.12;100478.77;1739791;82;20178;-62
2022/09/06 07:53:58;;;;;;;2.10;1.40;;;;;;;13.49;84.62;100483.17;1741132;82;21077;-62
2022/09/06 07:56:24;;;;;;;2.58;1.00;;;;;;;13.48;81.95;100486.98;1741943;80;21047;-61
2022/09/06 07:58:51;;;;;;;2.30;1.10;;;;;;;13.36;80.24;100479.86;1743916;82;21035;-61
2022/09/06 08:01:30;;;;;;;3.83;1.30;;;;;;;13.26;82.68;100473.56;1728058;82;21078;-62
2022/09/06 08:04:11;;;;;;;2.70;0.75;;;;;;;13.38;86.34;100470.86;1741596;82;21090;-62
2022/09/06 08:06:42;;;;;;;2.08;0.80;;;;;;;13.71;84.11;100476.31;1750470;82;21782;-62
2022/09/06 08:09:09;;;;;;;2.20;1.10;;;;;;;13.99;79.09;100472.20;1743837;82;21612;-63
2022/09/06 08:11:37;;;;;;;1.55;0.80;;;;;;;14.22;80.56;100467.48;1723240;82;21047;-63
2022/09/06 08:14:05;;;;;;;3.05;1.22;;;;;;;14.64;81.02;100457.50;1727445;82;21087;-63
2022/09/06 08:16:33;;;;;;;1140.98;708.92;;;;;;;15.04;77.91;100460.58;1669741;85;21128;-63
2022/09/06 08:19:03;;;;;;;48.58;27.75;;;;;;;15.26;71.40;100460.17;1729497;82;21111;-63
2022/09/06 08:21:32;;;;;;;10.20;5.30;;;;;;;15.40;70.45;100458.41;1730478;82;21126;-62
2022/09/06 08:24:07;;;;;;;5.28;2.25;;;;;;;15.53;66.18;100452.84;1710989;82;21053;-63
2022/09/06 08:26:35;;;;;;;1.30;0.60;;;;;;;15.66;67.12;100453.58;1713428;82;21070;-63
2022/09/06 08:29:05;;;;;;;11.43;7.12;;;;;;;15.90;65.49;100452.52;1707910;82;21039;-62
2022/09/06 08:31:32;;;;;;;6.55;3.12;;;;;;;15.93;63.54;100455.23;1709377;82;21053;-62
2022/09/06 08:33:59;;;;;;;4.58;2.15;;;;;;;15.79;62.14;100448.23;1736865;82;21048;-63
2022/09/06 08:36:28;;;;;;;5.50;1.65;;;;;;;15.60;61.44;100450.59;1736875;82;21044;-62
2022/09/06 08:38:59;;;;;;;2.87;1.30;;;;;;;15.28;61.86;100446.42;1719471;82;21392;-62
2022/09/06 08:41:30;;;;;;;18.20;8.05;;;;;;;14.96;62.21;100448.83;1736870;82;21071;-62
2022/09/06 08:44:05;;;;;;;2.55;1.00;;;;;;;14.67;64.12;100454.73;1719533;82;21018;-61
2022/09/06 08:46:39;;;;;;;10.72;5.83;;;;;;;14.44;64.04;100440.61;1718019;82;21026;-62
2022/09/06 08:49:06;;;;;;;7.58;4.03;;;;;;;14.34;66.58;100443.94;1718861;82;21053;-62
2022/09/06 08:51:49;;;;;;;6.15;3.15;;;;;;;14.49;66.73;100433.48;1682200;85;21009;-62
2022/09/06 08:54:48;;;;;;;2.47;1.30;;;;;;;14.62;68.18;100435.05;1712764;82;21043;-62
2022/09/06 08:57:36;;;;;;;3.40;1.47;;;;;;;14.72;66.34;100426.77;1726108;82;21043;-62
2022/09/06 09:00:07;;;;;;;2.33;1.40;;;;;;;14.70;66.32;100422.69;1732976;82;21114;-62
2022/09/06 09:02:50;;;;;;;28.38;14.13;;;;;;;14.54;65.05;100421.11;1713972;82;21002;-62
2022/09/06 09:05:28;;;;;;;3.92;1.98;;;;;;;14.40;65.94;100425.83;1736367;82;21117;-64
2022/09/06 09:08:36;;;;;;;3.75;2.02;;;;;;;14.31;67.16;100429.41;1722468;81;21055;-65
2022/09/06 09:11:05;;;;;;;29.07;13.72;;;;;;;14.23;67.18;100421.21;1642791;86;21680;-65
2022/09/06 09:13:53;;;;;;;5.85;2.92;;;;;;;14.24;67.07;100424.20;1666231;85;21517;-64
2022/09/06 09:16:19;;;;;;;5.53;3.33;;;;;;;14.25;67.05;100414.06;1736067;82;21581;-63
2022/09/06 09:18:52;;;;;;;9.25;4.92;;;;;;;14.30;65.93;100412.15;1721656;82;21031;-64
2022/09/06 09:21:22;;;;;;;5.70;2.40;;;;;;;14.33;66.10;100414.32;1707340;84;21098;-64
2022/09/06 09:23:55;;;;;;;74.15;36.55;;;;;;;14.28;64.69;100411.59;1707651;84;21067;-65
2022/09/06 09:26:25;;;;;;;4.78;2.80;;;;;;;14.29;64.97;100411.05;1708090;82;21122;-65
2022/09/06 09:29:11;;;;;;;214.20;120.75;;;;;;;14.31;65.13;100405.55;1707843;83;21110;-64
2022/09/06 09:31:48;;;;;;;17.85;12.25;;;;;;;14.42;64.76;100406.36;1707922;84;21954;-62
2022/09/06 09:34:32;;;;;;;;;;;;;;;14.56;65.73;100397.00;1710439;82;21044;-63
2022/09/06 09:37:25;;;;;;;13.98;7.10;;;;;;;14.67;64.54;100400.75;1709196;84;20125;-62
2022/09/06 09:39:53;;;;;;;7.70;4.03;;;;;;;14.59;63.53;100401.92;1709084;83;21019;-62
2022/09/06 09:42:29;;;;;;;70.75;31.87;;;;;;;14.56;64.75;100399.17;1655771;85;20976;-62
2022/09/06 09:44:56;;;;;;;13.00;7.58;;;;;;;14.65;65.76;100398.86;1652520;85;21035;-62
2022/09/06 09:47:29;;;;;;;27.87;19.98;;;;;;;14.72;64.55;100403.48;1673260;85;21443;-62
2022/09/06 09:49:56;;;;;;;6.65;3.70;;;;;;;14.81;64.78;100402.31;1654550;86;21082;-62
2022/09/06 09:52:29;;;;;;;9.83;5.97;;;;;;;14.72;62.18;100406.22;1654245;86;21094;-63
2022/09/06 09:54:59;;;;;;;38.45;19.92;;;;;;;14.53;63.01;100401.65;1674694;85;21732;-63
2022/09/06 09:57:26;;;;;;;10.63;6.80;;;;;;;14.39;63.12;100403.64;1682515;85;21043;-63
2022/09/06 10:00:05;;;;;;;22.15;13.20;;;;;;;14.32;63.30;100409.94;1682561;85;21075;-63
2022/09/06 10:02:32;;;;;;;348.27;212.25;;;;;;;14.30;64.59;100413.52;1681572;85;21129;-63
2022/09/06 10:05:12;;;;;;;186.28;114.05;;;;;;;14.30;64.44;100406.67;1701021;84;21988;-63
2022/09/06 10:07:56;;;;;;;26.75;17.92;;;;;;;14.39;64.49;100413.22;1697254;84;21039;-64
2022/09/06 10:10:33;;;;;;;302.18;216.73;;;;;;;14.45;64.18;100413.46;1672662;84;22271;-63
2022/09/06 10:13:25;;;;;;;21.70;15.90;;;;;;;14.43;62.74;100414.30;1669471;86;21063;-63
2022/09/06 10:15:52;;;;;;;19.80;11.83;;;;;;;14.47;64.75;100406.34;1669093;85;21189;-63
2022/09/06 10:18:41;;;;;;;40.73;27.82;;;;;;;14.54;64.00;100403.30;1668861;86;21086;-64
2022/09/06 10:21:21;;;;;;;37.60;29.25;;;;;;;14.64;65.29;100403.23;1691699;84;21179;-63
2022/09/06 10:24:11;;;;;;;35.23;22.35;;;;;;;14.73;66.48;100402.94;1696886;84;21616;-64
2022/09/06 10:26:49;;;;;;;31.77;22.17;;;;;;;14.82;66.40;100400.67;1696892;84;21157;-63
2022/09/06 10:29:36;;;;;;;41.53;27.90;;;;;;;14.78;65.03;100400.14;1696401;84;21569;-63
2022/09/06 10:32:23;;;;;;;34.10;23.77;;;;;;;14.75;65.41;100402.91;1697259;84;21169;-64
2022/09/06 10:35:16;;;;;;;74.58;47.98;;;;;;;14.66;64.69;100394.20;1697035;84;21153;-63
2022/09/06 10:38:18;;;;;;;41.58;27.00;;;;;;;14.59;65.73;100393.15;1698487;84;21003;-63
2022/09/06 10:40:54;;;;;;;41.02;26.48;;;;;;;14.64;67.48;100399.95;1670292;86;21625;-64
2022/09/06 10:43:20;;;;;;;45.08;27.50;;;;;;;14.61;65.76;100399.70;1709268;83;20948;-63
2022/09/06 10:46:08;;;;;;;;;;;;;;;14.54;66.63;100400.02;1711635;84;21015;-64
2022/09/06 10:48:39;;;;;;;46.20;28.10;;;;;;;14.42;65.96;100398.14;1731716;82;20122;-65
2022/09/06 10:51:26;;;;;;;42.70;28.17;;;;;;;14.26;68.23;100397.38;1738035;82;21534;-64
2022/09/06 10:54:10;;;;;;;46.37;29.15;;;;;;;14.28;69.52;100404.74;1738721;82;20972;-64
2022/09/06 10:56:51;;;;;;;39.58;25.23;;;;;;;14.30;69.71;100393.52;1738327;82;21083;-64
2022/09/06 10:59:45;;;;;;;40.43;25.30;;;;;;;14.31;69.29;100390.48;1735034;82;20972;-64
2022/09/06 11:02:47;;;;;;;36.85;24.92;;;;;;;14.32;70.98;100396.79;1738582;82;20980;-64
2022/09/06 11:05:25;;;;;;;35.88;21.10;;;;;;;14.35;71.42;100403.92;1736911;82;21421;-64
2022/09/06 11:07:55;;;;;;;36.28;22.52;;;;;;;14.38;69.87;100410.20;1709291;82;20996;-64
2022/09/06 11:10:40;;;;;;;30.48;20.97;;;;;;;14.40;69.26;100408.57;1707009;84;21688;-64
2022/09/06 11:13:18;;;;;;;29.87;18.15;;;;;;;14.42;70.46;100406.36;1707625;84;21645;-64
2022/09/06 11:15:51;;;;;;;31.12;19.42;;;;;;;14.48;68.88;100412.11;1712858;82;21126;-64
2022/09/06 11:18:53;;;;;;;28.45;16.57;;;;;;;14.50;67.46;100400.30;1741345;82;21039;-64
2022/09/06 11:21:43;;;;;;;21.07;13.90;;;;;;;14.55;68.60;100402.20;1707452;83;21087;-63
2022/09/06 11:24:15;;;;;;;23.35;15.23;;;;;;;14.65;71.97;100400.77;1714120;83;21015;-64
2022/09/06 11:26:58;;;;;;;29.90;18.40;;;;;;;14.79;68.96;100397.68;1737781;82;21062;-64
2022/09/06 11:29:29;;;;;;;30.37;20.00;;;;;;;14.82;66.80;100397.11;1743028;82;21078;-64
2022/09/06 11:32:00;;;;;;;28.95;19.48;;;;;;;14.77;66.93;100401.27;1709790;84;21117;-62
2022/09/06 11:34:30;;;;;;;28.67;17.95;;;;;;;14.74;66.37;100400.44;1697087;84;21046;-63
2022/09/06 11:37:09;;;;;;;23.00;14.73;;;;;;;14.78;67.70;100402.34;1697243;84;21122;-63
2022/09/06 11:39:37;;;;;;;21.00;13.53;;;;;;;14.84;67.07;100397.08;1677661;84;21106;-63
2022/09/06 11:42:08;;;;;;;17.12;9.53;;;;;;;14.88;66.75;100399.53;1717167;83;21035;-64
2022/09/06 11:44:53;;;;;;;13.05;8.53;;;;;;;14.94;66.47;100397.59;1688976;83;20945;-63